sensor_id;sensor_type;location;lat;lon;timestamp;P1;durP1;ratioP1;P2;durP2;ratioP2
36863;SDS011;22793;51.148;6.948;2023-04-06T00:00:11;20.27;;;9.73;;
36863;SDS011;22793;51.148;6.948;2023-04-06T00:02:37;19.67;;;9.80;;
36863;SDS011;22793;51.148;6.948;2023-04-06T00:05:03;14.63;;;9.97;;
36863;SDS011;22793;51.148;6.948;2023-04-06T00:07:29;15.07;;;9.87;;
36863;SDS011;22793;51.148;6.948;2023-04-06T00:09:54;13.97;;;10.33;;
36863;SDS011;22793;51.148;6.948;2023-04-06T00:12:20;18.23;;;9.27;;
36863;SDS011;22793;51.148;6.948;2023-04-06T00:14:46;13.47;;;9.70;;
36863;SDS011;22793;51.148;6.948;2023-04-06T00:17:11;18.27;;;10.30;;
36863;SDS011;22793;51.148;6.948;2023-04-06T00:19:37;18.03;;;10.20;;
36863;SDS011;22793;51.148;6.948;2023-04-06T00:22:03;15.23;;;10.10;;
36863;SDS011;22793;51.148;6.948;2023-04-06T00:24:29;16.50;;;9.50;;
36863;SDS011;22793;51.148;6.948;2023-04-06T00:26:54;18.40;;;10.13;;
36863;SDS011;22793;51.148;6.948;2023-04-06T00:29:20;16.53;;;9.80;;
36863;SDS011;22793;51.148;6.948;2023-04-06T00:31:45;16.97;;;10.87;;
36863;SDS011;22793;51.148;6.948;2023-04-06T00:34:11;14.37;;;10.30;;
36863;SDS011;22793;51.148;6.948;2023-04-06T00:36:37;17.60;;;11.10;;
36863;SDS011;22793;51.148;6.948;2023-04-06T00:39:02;16.07;;;10.47;;
36863;SDS011;22793;51.148;6.948;2023-04-06T00:41:28;16.10;;;10.53;;
36863;SDS011;22793;51.148;6.948;2023-04-06T00:43:54;19.93;;;11.63;;
36863;SDS011;22793;51.148;6.948;2023-04-06T00:46:20;16.40;;;11.10;;
36863;SDS011;22793;51.148;6.948;2023-04-06T00:48:45;17.17;;;10.87;;
36863;SDS011;22793;51.148;6.948;2023-04-06T00:51:11;15.63;;;10.80;;
36863;SDS011;22793;51.148;6.948;2023-04-06T00:53:37;18.80;;;11.97;;
36863;SDS011;22793;51.148;6.948;2023-04-06T00:56:02;17.90;;;11.13;;
36863;SDS011;22793;51.148;6.948;2023-04-06T00:58:28;20.93;;;12.07;;
36863;SDS011;22793;51.148;6.948;2023-04-06T01:00:54;17.77;;;11.10;;
36863;SDS011;22793;51.148;6.948;2023-04-06T01:03:20;16.93;;;10.63;;
36863;SDS011;22793;51.148;6.948;2023-04-06T01:05:46;18.90;;;10.83;;
36863;SDS011;22793;51.148;6.948;2023-04-06T01:08:11;17.93;;;11.00;;
36863;SDS011;22793;51.148;6.948;2023-04-06T01:10:37;16.63;;;10.73;;
36863;SDS011;22793;51.148;6.948;2023-04-06T01:13:03;18.73;;;12.93;;
36863;SDS011;22793;51.148;6.948;2023-04-06T01:15:28;12.77;;;10.60;;
36863;SDS011;22793;51.148;6.948;2023-04-06T01:17:55;15.63;;;11.20;;
36863;SDS011;22793;51.148;6.948;2023-04-06T01:20:20;14.20;;;10.83;;
36863;SDS011;22793;51.148;6.948;2023-04-06T01:22:46;14.70;;;11.03;;
36863;SDS011;22793;51.148;6.948;2023-04-06T01:25:12;15.33;;;10.90;;
36863;SDS011;22793;51.148;6.948;2023-04-06T01:27:38;21.63;;;11.57;;
36863;SDS011;22793;51.148;6.948;2023-04-06T01:30:03;15.53;;;10.80;;
36863;SDS011;22793;51.148;6.948;2023-04-06T01:32:30;19.03;;;11.80;;
36863;SDS011;22793;51.148;6.948;2023-04-06T01:34:56;19.67;;;11.07;;
36863;SDS011;22793;51.148;6.948;2023-04-06T01:37:21;15.30;;;11.17;;
36863;SDS011;22793;51.148;6.948;2023-04-06T01:39:47;18.60;;;11.27;;
36863;SDS011;22793;51.148;6.948;2023-04-06T01:42:13;15.77;;;11.17;;
36863;SDS011;22793;51.148;6.948;2023-04-06T01:44:38;17.13;;;11.80;;
36863;SDS011;22793;51.148;6.948;2023-04-06T01:47:04;19.90;;;11.57;;
36863;SDS011;22793;51.148;6.948;2023-04-06T01:49:30;18.00;;;11.60;;
36863;SDS011;22793;51.148;6.948;2023-04-06T01:51:56;19.50;;;11.90;;
36863;SDS011;22793;51.148;6.948;2023-04-06T01:54:21;16.60;;;11.90;;
36863;SDS011;22793;51.148;6.948;2023-04-06T01:56:47;18.50;;;12.33;;
36863;SDS011;22793;51.148;6.948;2023-04-06T01:59:15;18.97;;;12.10;;
36863;SDS011;22793;51.148;6.948;2023-04-06T02:01:41;17.27;;;12.40;;
36863;SDS011;22793;51.148;6.948;2023-04-06T02:04:06;21.70;;;12.63;;
36863;SDS011;22793;51.148;6.948;2023-04-06T02:06:32;19.07;;;12.03;;
36863;SDS011;22793;51.148;6.948;2023-04-06T02:08:57;20.97;;;13.13;;
36863;SDS011;22793;51.148;6.948;2023-04-06T02:11:23;24.47;;;12.67;;
36863;SDS011;22793;51.148;6.948;2023-04-06T02:13:49;22.57;;;12.57;;
36863;SDS011;22793;51.148;6.948;2023-04-06T02:16:15;22.70;;;12.83;;
36863;SDS011;22793;51.148;6.948;2023-04-06T02:18:40;19.63;;;12.47;;
36863;SDS011;22793;51.148;6.948;2023-04-06T02:21:06;21.37;;;13.50;;
36863;SDS011;22793;51.148;6.948;2023-04-06T02:23:32;16.33;;;13.00;;
36863;SDS011;22793;51.148;6.948;2023-04-06T02:25:57;19.73;;;13.63;;
36863;SDS011;22793;51.148;6.948;2023-04-06T02:28:23;17.60;;;12.07;;
36863;SDS011;22793;51.148;6.948;2023-04-06T02:30:49;18.73;;;12.00;;
36863;SDS011;22793;51.148;6.948;2023-04-06T02:33:14;16.53;;;11.47;;
36863;SDS011;22793;51.148;6.948;2023-04-06T02:35:40;19.10;;;11.37;;
36863;SDS011;22793;51.148;6.948;2023-04-06T02:38:06;16.03;;;11.47;;
36863;SDS011;22793;51.148;6.948;2023-04-06T02:40:31;15.70;;;10.93;;
36863;SDS011;22793;51.148;6.948;2023-04-06T02:42:57;15.27;;;11.40;;
36863;SDS011;22793;51.148;6.948;2023-04-06T02:45:23;17.13;;;11.87;;
36863;SDS011;22793;51.148;6.948;2023-04-06T02:47:48;17.87;;;11.77;;
36863;SDS011;22793;51.148;6.948;2023-04-06T02:50:14;16.20;;;11.67;;
36863;SDS011;22793;51.148;6.948;2023-04-06T02:52:40;18.60;;;11.20;;
36863;SDS011;22793;51.148;6.948;2023-04-06T02:55:06;19.50;;;11.30;;
36863;SDS011;22793;51.148;6.948;2023-04-06T02:57:32;16.27;;;10.40;;
36863;SDS011;22793;51.148;6.948;2023-04-06T02:59:58;19.17;;;10.93;;
36863;SDS011;22793;51.148;6.948;2023-04-06T03:02:24;16.80;;;10.30;;
36863;SDS011;22793;51.148;6.948;2023-04-06T03:04:50;20.33;;;10.77;;
36863;SDS011;22793;51.148;6.948;2023-04-06T03:07:15;17.47;;;10.37;;
36863;SDS011;22793;51.148;6.948;2023-04-06T03:09:41;14.20;;;9.60;;
36863;SDS011;22793;51.148;6.948;2023-04-06T03:12:07;16.77;;;10.07;;
36863;SDS011;22793;51.148;6.948;2023-04-06T03:14:32;15.57;;;10.83;;
36863;SDS011;22793;51.148;6.948;2023-04-06T03:16:58;11.13;;;8.83;;
36863;SDS011;22793;51.148;6.948;2023-04-06T03:19:24;13.87;;;9.73;;
36863;SDS011;22793;51.148;6.948;2023-04-06T03:21:50;13.40;;;8.40;;
36863;SDS011;22793;51.148;6.948;2023-04-06T03:24:15;13.93;;;10.40;;
36863;SDS011;22793;51.148;6.948;2023-04-06T03:26:41;17.90;;;10.20;;
36863;SDS011;22793;51.148;6.948;2023-04-06T03:29:07;12.13;;;8.87;;
36863;SDS011;22793;51.148;6.948;2023-04-06T03:31:32;17.13;;;10.37;;
36863;SDS011;22793;51.148;6.948;2023-04-06T03:33:58;14.00;;;9.70;;
36863;SDS011;22793;51.148;6.948;2023-04-06T03:36:24;14.13;;;9.87;;
36863;SDS011;22793;51.148;6.948;2023-04-06T03:38:51;15.03;;;9.97;;
36863;SDS011;22793;51.148;6.948;2023-04-06T03:41:18;11.50;;;9.47;;
36863;SDS011;22793;51.148;6.948;2023-04-06T03:43:44;14.97;;;10.23;;
36863;SDS011;22793;51.148;6.948;2023-04-06T03:46:10;16.43;;;10.13;;
36863;SDS011;22793;51.148;6.948;2023-04-06T03:48:36;16.07;;;10.50;;
36863;SDS011;22793;51.148;6.948;2023-04-06T03:51:02;14.07;;;10.13;;
36863;SDS011;22793;51.148;6.948;2023-04-06T03:53:27;11.53;;;9.70;;
36863;SDS011;22793;51.148;6.948;2023-04-06T03:55:53;16.10;;;10.87;;
36863;SDS011;22793;51.148;6.948;2023-04-06T03:58:19;16.63;;;10.63;;
36863;SDS011;22793;51.148;6.948;2023-04-06T04:00:44;15.80;;;9.63;;
36863;SDS011;22793;51.148;6.948;2023-04-06T04:03:10;13.83;;;9.37;;
36863;SDS011;22793;51.148;6.948;2023-04-06T04:05:36;16.20;;;10.03;;
36863;SDS011;22793;51.148;6.948;2023-04-06T04:08:01;22.13;;;10.43;;
36863;SDS011;22793;51.148;6.948;2023-04-06T04:10:27;22.93;;;9.77;;
36863;SDS011;22793;51.148;6.948;2023-04-06T04:12:53;13.50;;;9.73;;
36863;SDS011;22793;51.148;6.948;2023-04-06T04:15:18;18.33;;;10.13;;
36863;SDS011;22793;51.148;6.948;2023-04-06T04:17:44;13.50;;;9.77;;
36863;SDS011;22793;51.148;6.948;2023-04-06T04:20:12;14.07;;;9.67;;
36863;SDS011;22793;51.148;6.948;2023-04-06T04:22:38;14.37;;;10.97;;
36863;SDS011;22793;51.148;6.948;2023-04-06T04:25:03;17.40;;;11.27;;
36863;SDS011;22793;51.148;6.948;2023-04-06T04:27:30;18.43;;;10.80;;
36863;SDS011;22793;51.148;6.948;2023-04-06T04:29:55;14.80;;;10.67;;
36863;SDS011;22793;51.148;6.948;2023-04-06T04:32:21;18.30;;;9.83;;
36863;SDS011;22793;51.148;6.948;2023-04-06T04:34:47;15.40;;;9.30;;
36863;SDS011;22793;51.148;6.948;2023-04-06T04:37:12;13.80;;;9.73;;
36863;SDS011;22793;51.148;6.948;2023-04-06T04:39:38;14.70;;;9.47;;
36863;SDS011;22793;51.148;6.948;2023-04-06T04:42:04;16.20;;;9.37;;
36863;SDS011;22793;51.148;6.948;2023-04-06T04:44:30;14.73;;;10.47;;
36863;SDS011;22793;51.148;6.948;2023-04-06T04:46:55;16.67;;;10.57;;
36863;SDS011;22793;51.148;6.948;2023-04-06T04:49:21;13.30;;;9.87;;
36863;SDS011;22793;51.148;6.948;2023-04-06T04:51:47;16.57;;;10.63;;
36863;SDS011;22793;51.148;6.948;2023-04-06T04:54:13;16.93;;;9.90;;
36863;SDS011;22793;51.148;6.948;2023-04-06T04:56:38;15.37;;;8.87;;
36863;SDS011;22793;51.148;6.948;2023-04-06T04:59:04;15.13;;;9.70;;
36863;SDS011;22793;51.148;6.948;2023-04-06T05:01:30;13.70;;;9.57;;
36863;SDS011;22793;51.148;6.948;2023-04-06T05:03:56;12.70;;;9.77;;
36863;SDS011;22793;51.148;6.948;2023-04-06T05:06:21;14.97;;;9.97;;
36863;SDS011;22793;51.148;6.948;2023-04-06T05:08:47;13.93;;;10.53;;
36863;SDS011;22793;51.148;6.948;2023-04-06T05:11:13;16.90;;;9.30;;
36863;SDS011;22793;51.148;6.948;2023-04-06T05:13:38;12.97;;;8.57;;
36863;SDS011;22793;51.148;6.948;2023-04-06T05:16:04;14.27;;;9.73;;
36863;SDS011;22793;51.148;6.948;2023-04-06T05:18:30;13.20;;;9.70;;
36863;SDS011;22793;51.148;6.948;2023-04-06T05:20:56;15.73;;;9.60;;
36863;SDS011;22793;51.148;6.948;2023-04-06T05:23:22;20.13;;;9.53;;
36863;SDS011;22793;51.148;6.948;2023-04-06T05:25:47;20.93;;;12.43;;
36863;SDS011;22793;51.148;6.948;2023-04-06T05:28:14;20.40;;;10.37;;
36863;SDS011;22793;51.148;6.948;2023-04-06T05:30:41;15.80;;;9.77;;
36863;SDS011;22793;51.148;6.948;2023-04-06T05:33:07;14.00;;;9.30;;
36863;SDS011;22793;51.148;6.948;2023-04-06T05:35:34;12.83;;;9.00;;
36863;SDS011;22793;51.148;6.948;2023-04-06T05:37:59;18.90;;;10.17;;
36863;SDS011;22793;51.148;6.948;2023-04-06T05:40:25;12.97;;;9.23;;
36863;SDS011;22793;51.148;6.948;2023-04-06T05:42:51;14.07;;;8.83;;
36863;SDS011;22793;51.148;6.948;2023-04-06T05:45:17;17.17;;;9.33;;
36863;SDS011;22793;51.148;6.948;2023-04-06T05:47:43;12.37;;;9.70;;
36863;SDS011;22793;51.148;6.948;2023-04-06T05:50:14;18.30;;;9.30;;
36863;SDS011;22793;51.148;6.948;2023-04-06T05:52:40;15.13;;;8.93;;
36863;SDS011;22793;51.148;6.948;2023-04-06T05:55:08;14.67;;;9.23;;
36863;SDS011;22793;51.148;6.948;2023-04-06T05:57:34;14.43;;;9.47;;
36863;SDS011;22793;51.148;6.948;2023-04-06T06:00:00;14.97;;;9.33;;
36863;SDS011;22793;51.148;6.948;2023-04-06T06:02:26;15.53;;;9.23;;
36863;SDS011;22793;51.148;6.948;2023-04-06T06:04:51;12.77;;;8.93;;
36863;SDS011;22793;51.148;6.948;2023-04-06T06:07:17;13.73;;;8.87;;
36863;SDS011;22793;51.148;6.948;2023-04-06T06:09:43;13.80;;;8.83;;
36863;SDS011;22793;51.148;6.948;2023-04-06T06:12:08;18.23;;;9.53;;
36863;SDS011;22793;51.148;6.948;2023-04-06T06:14:34;14.97;;;9.70;;
36863;SDS011;22793;51.148;6.948;2023-04-06T06:17:00;13.40;;;9.10;;
36863;SDS011;22793;51.148;6.948;2023-04-06T06:19:25;13.33;;;8.83;;
36863;SDS011;22793;51.148;6.948;2023-04-06T06:21:51;13.43;;;9.20;;
36863;SDS011;22793;51.148;6.948;2023-04-06T06:24:17;11.20;;;8.60;;
36863;SDS011;22793;51.148;6.948;2023-04-06T06:26:42;15.37;;;10.20;;
36863;SDS011;22793;51.148;6.948;2023-04-06T06:29:08;15.57;;;8.53;;
36863;SDS011;22793;51.148;6.948;2023-04-06T06:31:34;18.07;;;9.20;;
36863;SDS011;22793;51.148;6.948;2023-04-06T06:34:00;15.17;;;8.43;;
36863;SDS011;22793;51.148;6.948;2023-04-06T06:36:26;14.13;;;9.37;;
36863;SDS011;22793;51.148;6.948;2023-04-06T06:38:53;16.47;;;9.10;;
36863;SDS011;22793;51.148;6.948;2023-04-06T06:41:18;10.37;;;8.20;;
36863;SDS011;22793;51.148;6.948;2023-04-06T06:43:44;15.97;;;9.63;;
36863;SDS011;22793;51.148;6.948;2023-04-06T06:46:10;16.07;;;10.23;;
36863;SDS011;22793;51.148;6.948;2023-04-06T06:48:35;13.07;;;9.23;;
36863;SDS011;22793;51.148;6.948;2023-04-06T06:51:01;12.97;;;9.33;;
36863;SDS011;22793;51.148;6.948;2023-04-06T06:53:27;11.83;;;9.83;;
36863;SDS011;22793;51.148;6.948;2023-04-06T06:55:53;13.17;;;8.70;;
36863;SDS011;22793;51.148;6.948;2023-04-06T06:58:19;15.20;;;9.57;;
36863;SDS011;22793;51.148;6.948;2023-04-06T07:00:45;12.37;;;9.23;;
36863;SDS011;22793;51.148;6.948;2023-04-06T07:03:11;13.33;;;10.27;;
36863;SDS011;22793;51.148;6.948;2023-04-06T07:05:37;17.30;;;9.17;;
36863;SDS011;22793;51.148;6.948;2023-04-06T07:08:02;16.07;;;9.80;;
36863;SDS011;22793;51.148;6.948;2023-04-06T07:10:28;11.57;;;9.90;;
36863;SDS011;22793;51.148;6.948;2023-04-06T07:12:54;15.07;;;10.77;;
36863;SDS011;22793;51.148;6.948;2023-04-06T07:15:20;17.63;;;10.80;;
36863;SDS011;22793;51.148;6.948;2023-04-06T07:17:46;13.40;;;9.30;;
36863;SDS011;22793;51.148;6.948;2023-04-06T07:20:11;18.07;;;10.50;;
36863;SDS011;22793;51.148;6.948;2023-04-06T07:22:38;14.73;;;8.97;;
36863;SDS011;22793;51.148;6.948;2023-04-06T07:25:04;22.10;;;11.57;;
36863;SDS011;22793;51.148;6.948;2023-04-06T07:27:31;14.70;;;10.03;;
36863;SDS011;22793;51.148;6.948;2023-04-06T07:29:57;15.93;;;10.20;;
36863;SDS011;22793;51.148;6.948;2023-04-06T07:32:22;16.67;;;10.67;;
36863;SDS011;22793;51.148;6.948;2023-04-06T07:34:48;15.70;;;10.83;;
36863;SDS011;22793;51.148;6.948;2023-04-06T07:37:14;14.37;;;10.73;;
36863;SDS011;22793;51.148;6.948;2023-04-06T07:39:40;18.13;;;10.97;;
36863;SDS011;22793;51.148;6.948;2023-04-06T07:42:05;18.17;;;10.93;;
36863;SDS011;22793;51.148;6.948;2023-04-06T07:44:31;16.47;;;9.90;;
36863;SDS011;22793;51.148;6.948;2023-04-06T07:46:57;16.93;;;12.13;;
36863;SDS011;22793;51.148;6.948;2023-04-06T07:49:22;17.57;;;11.63;;
36863;SDS011;22793;51.148;6.948;2023-04-06T07:51:48;18.37;;;10.63;;
36863;SDS011;22793;51.148;6.948;2023-04-06T07:54:14;15.93;;;10.07;;
36863;SDS011;22793;51.148;6.948;2023-04-06T07:56:40;17.03;;;11.17;;
36863;SDS011;22793;51.148;6.948;2023-04-06T07:59:06;19.57;;;11.23;;
36863;SDS011;22793;51.148;6.948;2023-04-06T08:01:32;18.43;;;11.20;;
36863;SDS011;22793;51.148;6.948;2023-04-06T08:03:57;16.90;;;10.27;;
36863;SDS011;22793;51.148;6.948;2023-04-06T08:06:23;18.40;;;11.40;;
36863;SDS011;22793;51.148;6.948;2023-04-06T08:08:49;15.87;;;10.43;;
36863;SDS011;22793;51.148;6.948;2023-04-06T08:11:15;17.53;;;11.73;;
36863;SDS011;22793;51.148;6.948;2023-04-06T08:13:41;17.23;;;10.67;;
36863;SDS011;22793;51.148;6.948;2023-04-06T08:16:06;20.27;;;11.67;;
36863;SDS011;22793;51.148;6.948;2023-04-06T08:18:32;14.37;;;11.23;;
36863;SDS011;22793;51.148;6.948;2023-04-06T08:20:58;20.43;;;10.63;;
36863;SDS011;22793;51.148;6.948;2023-04-06T08:23:23;15.43;;;11.03;;
36863;SDS011;22793;51.148;6.948;2023-04-06T08:25:49;16.20;;;11.30;;
36863;SDS011;22793;51.148;6.948;2023-04-06T08:28:15;15.27;;;10.67;;
36863;SDS011;22793;51.148;6.948;2023-04-06T08:30:41;17.77;;;12.00;;
36863;SDS011;22793;51.148;6.948;2023-04-06T08:33:08;19.00;;;12.13;;
36863;SDS011;22793;51.148;6.948;2023-04-06T08:35:34;14.60;;;10.83;;
36863;SDS011;22793;51.148;6.948;2023-04-06T08:37:59;17.20;;;10.73;;
36863;SDS011;22793;51.148;6.948;2023-04-06T08:40:25;15.80;;;11.07;;
36863;SDS011;22793;51.148;6.948;2023-04-06T08:42:52;25.43;;;11.10;;
36863;SDS011;22793;51.148;6.948;2023-04-06T08:45:21;18.87;;;11.87;;
36863;SDS011;22793;51.148;6.948;2023-04-06T08:47:50;16.67;;;11.27;;
36863;SDS011;22793;51.148;6.948;2023-04-06T08:50:17;16.60;;;11.00;;
36863;SDS011;22793;51.148;6.948;2023-04-06T08:52:45;16.70;;;11.17;;
36863;SDS011;22793;51.148;6.948;2023-04-06T08:55:12;18.07;;;11.37;;
36863;SDS011;22793;51.148;6.948;2023-04-06T08:57:39;19.47;;;12.87;;
36863;SDS011;22793;51.148;6.948;2023-04-06T09:00:07;20.27;;;11.87;;
36863;SDS011;22793;51.148;6.948;2023-04-06T09:02:36;20.57;;;12.23;;
36863;SDS011;22793;51.148;6.948;2023-04-06T09:05:04;18.67;;;13.27;;
36863;SDS011;22793;51.148;6.948;2023-04-06T09:07:30;20.67;;;12.73;;
36863;SDS011;22793;51.148;6.948;2023-04-06T09:09:56;21.85;;;14.45;;
36863;SDS011;22793;51.148;6.948;2023-04-06T09:12:26;22.50;;;13.83;;
36863;SDS011;22793;51.148;6.948;2023-04-06T09:14:53;19.40;;;13.07;;
36863;SDS011;22793;51.148;6.948;2023-04-06T09:17:24;26.23;;;14.03;;
36863;SDS011;22793;51.148;6.948;2023-04-06T09:19:59;23.70;;;13.63;;
36863;SDS011;22793;51.148;6.948;2023-04-06T09:22:34;24.07;;;13.43;;
36863;SDS011;22793;51.148;6.948;2023-04-06T09:25:04;26.67;;;15.27;;
36863;SDS011;22793;51.148;6.948;2023-04-06T09:27:31;24.87;;;14.27;;
36863;SDS011;22793;51.148;6.948;2023-04-06T09:30:08;26.57;;;14.80;;
36863;SDS011;22793;51.148;6.948;2023-04-06T09:35:14;21.77;;;14.07;;
36863;SDS011;22793;51.148;6.948;2023-04-06T09:37:41;24.47;;;15.10;;
36863;SDS011;22793;51.148;6.948;2023-04-06T09:40:08;29.20;;;14.70;;
36863;SDS011;22793;51.148;6.948;2023-04-06T09:42:34;27.07;;;14.90;;
36863;SDS011;22793;51.148;6.948;2023-04-06T09:45:01;23.67;;;14.70;;
36863;SDS011;22793;51.148;6.948;2023-04-06T09:47:28;21.13;;;14.00;;
36863;SDS011;22793;51.148;6.948;2023-04-06T09:49:56;23.07;;;13.80;;
36863;SDS011;22793;51.148;6.948;2023-04-06T09:52:27;22.77;;;14.73;;
36863;SDS011;22793;51.148;6.948;2023-04-06T09:55:03;22.97;;;14.20;;
36863;SDS011;22793;51.148;6.948;2023-04-06T10:05:09;24.40;;;13.87;;
36863;SDS011;22793;51.148;6.948;2023-04-06T10:07:38;23.25;;;15.07;;
36863;SDS011;22793;51.148;6.948;2023-04-06T10:10:05;26.53;;;14.57;;
36863;SDS011;22793;51.148;6.948;2023-04-06T10:12:31;26.23;;;15.60;;
36863;SDS011;22793;51.148;6.948;2023-04-06T10:16:59;26.47;;;15.70;;
